< < Back
Terminal Aerodrome Forecast


Current Version              Previous Versions:   1  2  3  4  5  6  7  8  9  

Terminal Aerodrome Forecast

040
FTUS42 KCHS 021133
TAFCHS
TAF
KCHS 021133Z 0212/0312 21004KT P6SM SCT025 SCT100
      TEMPO 0212/0214 BKN030
     FM021800 15009KT P6SM SCT040 BKN150
     FM030000 VRB04KT P6SM SCT015 SCT250=

Latest METAR

159
SAUS80 KWBC 021200
MTRCHS
METAR KCHS 021156Z 04003KT 10SM FEW032 FEW050 FEW150 26/24 A2992 RMK AO2
SLP131 CB DSNT SW TCU DSNT SE T02610244 10261 20233 51007


USA.gov is the U.S. government's official web portal to all federal, state and local government web resources and services.